createdAt,value
2018-10-06T00:01:38.063Z,18.27
2018-10-06T00:04:05.320Z,20.13
2018-10-06T00:06:32.581Z,20.00
2018-10-06T00:08:59.800Z,22.87
2018-10-06T00:11:27.040Z,19.03
2018-10-06T00:13:54.279Z,17.30
2018-10-06T00:16:21.500Z,20.37
2018-10-06T00:18:48.727Z,18.40
2018-10-06T00:21:15.972Z,17.43
2018-10-06T00:23:43.195Z,20.00
2018-10-06T00:26:10.500Z,21.73
2018-10-06T00:28:37.720Z,20.50
2018-10-06T00:31:05.000Z,19.73
2018-10-06T00:33:32.254Z,19.60
2018-10-06T00:35:59.508Z,19.53
2018-10-06T00:38:26.736Z,21.57
2018-10-06T00:40:53.963Z,20.07
2018-10-06T00:43:21.200Z,18.47
2018-10-06T00:45:48.440Z,20.93
2018-10-06T00:48:15.675Z,20.53
2018-10-06T00:50:42.901Z,19.87
2018-10-06T00:53:10.136Z,21.10
2018-10-06T00:55:37.368Z,20.97
2018-10-06T00:58:04.593Z,20.20
2018-10-06T01:00:31.822Z,17.65
2018-10-06T01:02:59.049Z,18.17
2018-10-06T01:05:26.300Z,21.07
2018-10-06T01:07:53.600Z,19.40
2018-10-06T01:10:20.826Z,21.25
2018-10-06T01:12:48.060Z,21.10
2018-10-06T01:15:15.328Z,18.00
2018-10-06T01:17:42.568Z,18.10
2018-10-06T01:20:09.868Z,19.53
2018-10-06T01:22:37.088Z,19.50
2018-10-06T01:25:04.360Z,19.87
2018-10-06T01:27:31.597Z,20.17
2018-10-06T01:29:58.819Z,18.50
2018-10-06T01:32:26.060Z,21.53
2018-10-06T01:34:53.284Z,22.70
2018-10-06T01:37:20.516Z,20.40
2018-10-06T01:39:47.748Z,22.97
2018-10-06T01:42:15.012Z,20.40
2018-10-06T01:44:42.243Z,19.27
2018-10-06T01:47:09.472Z,18.43
2018-10-06T01:49:36.698Z,19.97
2018-10-06T01:52:03.950Z,19.53
2018-10-06T01:54:31.164Z,19.57
2018-10-06T01:56:58.397Z,19.40
2018-10-06T01:59:25.633Z,19.33
2018-10-06T02:01:52.862Z,20.00
2018-10-06T02:04:23.176Z,20.20
2018-10-06T02:06:50.596Z,20.00
2018-10-06T02:09:17.884Z,19.60
2018-10-06T02:11:45.124Z,18.73
2018-10-06T02:14:12.364Z,18.13
2018-10-06T02:16:39.592Z,19.43
2018-10-06T02:19:06.820Z,20.30
2018-10-06T02:21:34.056Z,22.40
2018-10-06T02:24:01.276Z,20.40
2018-10-06T02:26:28.536Z,19.33
2018-10-06T02:28:55.764Z,23.37
2018-10-06T02:31:23.019Z,22.87
2018-10-06T02:33:50.236Z,20.53
2018-10-06T02:36:17.494Z,19.73
2018-10-06T02:38:44.724Z,23.03
2018-10-06T02:41:11.951Z,19.13
2018-10-06T02:43:39.177Z,18.93
2018-10-06T02:46:06.471Z,19.73
2018-10-06T02:48:33.696Z,22.73
2018-10-06T02:51:00.970Z,22.20
2018-10-06T02:53:28.200Z,20.10
2018-10-06T02:55:55.440Z,22.63
2018-10-06T02:58:22.735Z,20.77
2018-10-06T03:00:49.968Z,18.67
2018-10-06T03:03:17.200Z,19.50
2018-10-06T03:05:44.436Z,20.27
2018-10-06T03:08:11.664Z,20.20
2018-10-06T03:10:38.881Z,21.70
2018-10-06T03:13:06.104Z,17.77
2018-10-06T03:15:33.341Z,19.60
2018-10-06T03:18:00.588Z,20.53
2018-10-06T03:20:27.818Z,20.40
2018-10-06T03:22:55.068Z,18.73
2018-10-06T03:25:22.296Z,19.00
2018-10-06T03:27:49.536Z,18.90
2018-10-06T03:30:17.452Z,19.00
2018-10-06T03:32:44.681Z,19.40
2018-10-06T03:35:11.924Z,18.37
2018-10-06T03:37:39.148Z,21.10
2018-10-06T03:40:06.412Z,18.30
2018-10-06T03:42:33.740Z,19.10
2018-10-06T03:45:00.970Z,18.47
2018-10-06T03:47:28.207Z,20.13
2018-10-06T03:49:55.440Z,18.70
2018-10-06T03:52:22.819Z,18.50
2018-10-06T03:54:50.052Z,19.80
2018-10-06T03:57:17.296Z,19.30
2018-10-06T03:59:44.524Z,20.30
2018-10-06T04:02:11.806Z,20.27
2018-10-06T04:04:39.033Z,19.87
2018-10-06T04:07:06.288Z,21.57
2018-10-06T04:09:33.524Z,19.07
2018-10-06T04:12:00.753Z,21.37
2018-10-06T04:14:27.972Z,18.30
2018-10-06T04:16:55.265Z,19.03
2018-10-06T04:19:22.502Z,20.60
2018-10-06T04:21:49.728Z,21.70
2018-10-06T04:24:17.825Z,20.00
2018-10-06T04:26:45.111Z,22.47
2018-10-06T04:29:12.363Z,21.00
2018-10-06T04:31:39.852Z,23.10
2018-10-06T04:34:07.111Z,24.00
2018-10-06T04:36:34.368Z,21.40
2018-10-06T04:39:02.067Z,21.67
2018-10-06T04:41:29.687Z,24.10
2018-10-06T04:43:56.920Z,22.33
2018-10-06T04:46:24.184Z,24.67
2018-10-06T04:48:51.474Z,23.23
2018-10-06T04:51:18.792Z,20.47
2018-10-06T04:53:46.024Z,19.97
2018-10-06T04:56:13.272Z,20.10
2018-10-06T04:58:40.505Z,19.53
2018-10-06T05:01:07.740Z,25.77
2018-10-06T05:03:34.985Z,19.27
2018-10-06T05:06:02.236Z,19.87
2018-10-06T05:08:29.473Z,22.67
2018-10-06T05:10:56.751Z,23.83
2018-10-06T05:13:23.991Z,22.10
2018-10-06T05:15:51.228Z,20.57
2018-10-06T05:18:18.488Z,24.43
2018-10-06T05:20:45.712Z,21.10
2018-10-06T05:23:12.982Z,20.90
2018-10-06T05:25:40.212Z,22.37
2018-10-06T05:28:07.439Z,21.40
2018-10-06T05:30:34.712Z,21.70
2018-10-06T05:33:01.950Z,22.57
2018-10-06T05:35:29.188Z,23.80
2018-10-06T05:37:56.428Z,20.47
2018-10-06T05:40:23.664Z,20.75
2018-10-06T05:42:50.911Z,20.63
2018-10-06T05:45:18.156Z,20.95
2018-10-06T05:47:45.396Z,22.10
2018-10-06T05:50:12.628Z,20.50
2018-10-06T05:52:39.856Z,25.17
2018-10-06T05:55:07.089Z,25.23
2018-10-06T05:57:34.331Z,20.73
2018-10-06T06:00:01.604Z,22.40
2018-10-06T06:02:28.872Z,23.25
2018-10-06T06:04:56.120Z,22.53
2018-10-06T06:07:23.352Z,23.07
2018-10-06T06:09:50.682Z,23.93
2018-10-06T06:12:17.852Z,24.57
2018-10-06T06:14:45.284Z,24.87
2018-10-06T06:17:12.528Z,21.97
2018-10-06T06:19:39.843Z,26.20
2018-10-06T06:22:07.087Z,24.80
2018-10-06T06:24:34.312Z,23.90
2018-10-06T06:27:01.576Z,21.03
2018-10-06T06:29:28.884Z,21.90
2018-10-06T06:31:56.137Z,22.55
2018-10-06T06:34:23.378Z,21.60
2018-10-06T06:36:50.716Z,23.40
2018-10-06T06:39:17.976Z,22.00
2018-10-06T06:41:45.212Z,24.50
2018-10-06T06:44:12.494Z,22.33
2018-10-06T06:46:39.689Z,22.40
2018-10-06T06:49:06.956Z,22.20
2018-10-06T06:51:34.452Z,22.87
2018-10-06T06:54:01.729Z,22.17
2018-10-06T06:56:28.964Z,22.93
2018-10-06T06:58:56.264Z,23.90
2018-10-06T07:01:23.553Z,23.97
2018-10-06T07:03:50.766Z,21.50
2018-10-06T07:06:18.056Z,20.00
2018-10-06T07:08:45.300Z,19.30
2018-10-06T07:11:12.553Z,22.75
2018-10-06T07:13:39.888Z,18.70
2018-10-06T07:16:07.489Z,17.40
2018-10-06T07:18:35.095Z,18.50
2018-10-06T07:21:02.332Z,18.90
2018-10-06T07:25:56.316Z,17.40
2018-10-06T07:28:23.578Z,17.50
2018-10-06T07:33:17.563Z,17.03
2018-10-06T07:35:44.817Z,17.23
2018-10-06T07:38:12.096Z,18.83
2018-10-06T07:40:39.341Z,16.43
2018-10-06T07:43:06.574Z,16.67
2018-10-06T07:45:33.832Z,15.00
2018-10-06T07:48:01.176Z,17.57
2018-10-06T07:50:28.413Z,15.70
2018-10-06T07:52:55.758Z,16.23
2018-10-06T07:55:23.016Z,14.87
2018-10-06T07:57:50.272Z,15.90
2018-10-06T08:00:17.589Z,16.10
2018-10-06T08:02:44.840Z,19.90
2018-10-06T08:05:12.073Z,14.50
2018-10-06T08:07:39.312Z,14.93
2018-10-06T08:10:06.580Z,14.83
2018-10-06T08:12:33.832Z,14.80
2018-10-06T08:15:01.088Z,14.03
2018-10-06T08:17:28.353Z,12.33
2018-10-06T08:19:55.589Z,13.73
2018-10-06T08:22:22.844Z,12.93
2018-10-06T08:24:50.078Z,12.40
2018-10-06T08:27:17.325Z,12.17
2018-10-06T08:29:44.592Z,13.47
2018-10-06T08:32:11.831Z,11.20
2018-10-06T08:34:39.072Z,13.80
2018-10-06T08:37:06.320Z,11.67
2018-10-06T08:39:33.544Z,11.60
2018-10-06T08:42:00.792Z,10.60
2018-10-06T08:44:28.035Z,10.20
2018-10-06T08:46:55.292Z,10.73
2018-10-06T08:49:22.564Z,9.77
2018-10-06T08:51:49.797Z,9.43
2018-10-06T08:54:17.037Z,7.20
2018-10-06T08:56:44.300Z,7.10
2018-10-06T08:59:11.521Z,6.73
2018-10-06T09:01:38.756Z,6.33
2018-10-06T09:04:06.389Z,7.43
2018-10-06T09:06:33.604Z,7.67
2018-10-06T09:09:00.878Z,5.63
2018-10-06T09:11:28.113Z,8.10
2018-10-06T09:13:55.361Z,9.13
2018-10-06T09:16:22.609Z,6.87
2018-10-06T09:18:49.891Z,6.97
2018-10-06T09:21:17.144Z,9.07
2018-10-06T09:23:44.388Z,8.47
2018-10-06T09:26:11.645Z,8.07
2018-10-06T09:28:38.881Z,9.40
2018-10-06T09:31:06.164Z,9.30
2018-10-06T09:33:33.417Z,7.60
2018-10-06T09:36:00.645Z,6.90
2018-10-06T09:38:27.876Z,8.00
2018-10-06T09:40:55.733Z,9.47
2018-10-06T09:43:22.956Z,9.33
2018-10-06T09:45:50.263Z,5.97
2018-10-06T09:48:17.542Z,10.33
2018-10-06T09:50:44.767Z,6.30
2018-10-06T09:53:12.006Z,8.13
2018-10-06T09:55:39.340Z,7.50
2018-10-06T09:58:06.581Z,7.93
2018-10-06T10:00:39.436Z,11.03
2018-10-06T10:03:12.337Z,9.93
2018-10-06T10:05:47.541Z,7.87
2018-10-06T10:08:14.762Z,10.27
2018-10-06T10:10:42.028Z,7.43
2018-10-06T10:13:09.289Z,8.03
2018-10-06T10:15:36.546Z,8.90
2018-10-06T10:18:03.833Z,7.23
2018-10-06T10:20:31.072Z,7.20
2018-10-06T10:22:58.412Z,9.23
2018-10-06T10:25:25.726Z,7.37
2018-10-06T10:27:52.999Z,7.03
2018-10-06T10:30:20.280Z,7.13
2018-10-06T10:32:47.518Z,7.20
2018-10-06T10:35:14.764Z,6.70
2018-10-06T10:37:41.994Z,6.37
2018-10-06T10:40:09.251Z,6.00
2018-10-06T10:42:36.498Z,6.30
2018-10-06T10:45:03.805Z,5.10
2018-10-06T10:47:31.056Z,6.33
2018-10-06T10:49:58.295Z,7.97
2018-10-06T10:52:25.532Z,7.30
2018-10-06T10:54:52.796Z,6.97
2018-10-06T10:57:20.037Z,4.80
2018-10-06T10:59:47.403Z,8.07
2018-10-06T11:02:14.604Z,7.20
2018-10-06T11:04:41.891Z,7.53
2018-10-06T11:07:09.121Z,6.57
2018-10-06T11:09:36.359Z,8.30
2018-10-06T11:12:03.629Z,7.93
2018-10-06T11:14:30.877Z,7.00
2018-10-06T11:16:58.129Z,7.30
2018-10-06T11:19:25.377Z,5.55
2018-10-06T11:21:52.631Z,6.10
2018-10-06T11:24:19.865Z,7.17
2018-10-06T11:26:47.097Z,5.47
2018-10-06T11:29:14.325Z,6.47
2018-10-06T11:31:41.576Z,6.77
2018-10-06T11:34:08.824Z,8.53
2018-10-06T11:36:36.126Z,6.60
2018-10-06T11:39:04.400Z,5.60
2018-10-06T11:41:31.640Z,5.43
2018-10-06T11:43:58.889Z,8.90
2018-10-06T11:46:26.112Z,5.67
2018-10-06T11:48:53.365Z,7.77
2018-10-06T11:51:20.600Z,5.90
2018-10-06T11:53:47.852Z,6.80
2018-10-06T11:56:15.171Z,8.53
2018-10-06T11:58:42.410Z,7.13
2018-10-06T12:01:09.680Z,4.93
2018-10-06T12:03:36.917Z,5.23
2018-10-06T12:06:04.183Z,5.80
2018-10-06T12:08:31.463Z,4.70
2018-10-06T12:10:58.721Z,7.37
2018-10-06T12:13:25.924Z,6.40
2018-10-06T12:15:53.176Z,4.37
2018-10-06T12:18:20.428Z,7.43
2018-10-06T12:20:47.660Z,6.40
2018-10-06T12:23:14.898Z,9.33
2018-10-06T12:25:42.142Z,7.20
2018-10-06T12:28:09.385Z,5.53
2018-10-06T12:30:36.617Z,4.83
2018-10-06T12:33:03.859Z,5.43
2018-10-06T12:35:31.225Z,7.20
2018-10-06T12:37:58.340Z,5.43
2018-10-06T12:40:25.572Z,4.17
2018-10-06T12:42:52.791Z,5.97
2018-10-06T12:45:20.045Z,6.90
2018-10-06T12:47:47.281Z,8.13
2018-10-06T12:50:14.509Z,6.83
2018-10-06T12:52:41.740Z,6.93
2018-10-06T12:55:09.017Z,5.53
2018-10-06T12:57:36.264Z,5.43
2018-10-06T13:00:03.681Z,5.30
2018-10-06T13:02:30.906Z,5.07
2018-10-06T13:04:58.156Z,4.97
2018-10-06T13:07:25.440Z,7.00
2018-10-06T13:09:52.727Z,5.57
2018-10-06T13:12:19.982Z,8.07
2018-10-06T13:14:47.209Z,7.70
2018-10-06T13:17:14.448Z,8.90
2018-10-06T13:19:41.689Z,5.87
2018-10-06T13:22:08.920Z,5.07
2018-10-06T13:24:36.158Z,3.83
2018-10-06T13:27:03.429Z,7.63
2018-10-06T13:29:30.684Z,7.87
2018-10-06T13:31:57.957Z,6.00
2018-10-06T13:34:25.173Z,7.67
2018-10-06T13:36:52.400Z,6.83
2018-10-06T13:39:19.676Z,5.73
2018-10-06T13:41:46.916Z,10.60
2018-10-06T13:44:14.223Z,8.63
2018-10-06T13:46:41.590Z,7.23
2018-10-06T13:49:08.828Z,4.60
2018-10-06T13:51:36.070Z,3.93
2018-10-06T13:54:03.364Z,6.57
2018-10-06T13:56:30.645Z,7.30
2018-10-06T13:58:57.884Z,5.10
2018-10-06T14:01:25.147Z,5.90
2018-10-06T14:03:52.385Z,7.03
2018-10-06T14:06:19.652Z,8.10
2018-10-06T14:08:46.887Z,5.43
2018-10-06T14:11:14.124Z,7.17
2018-10-06T14:13:41.365Z,5.20
2018-10-06T14:16:08.624Z,5.93
2018-10-06T14:18:35.893Z,6.23
2018-10-06T14:21:03.150Z,6.67
2018-10-06T14:23:30.405Z,4.87
2018-10-06T14:25:57.648Z,6.20
2018-10-06T14:28:24.897Z,7.07
2018-10-06T14:30:52.179Z,5.37
2018-10-06T14:33:19.459Z,6.87
2018-10-06T14:35:46.709Z,5.93
2018-10-06T14:38:13.975Z,7.30
2018-10-06T14:40:41.284Z,6.73
2018-10-06T14:43:08.536Z,6.07
2018-10-06T14:45:35.793Z,6.50
2018-10-06T14:48:03.056Z,7.13
2018-10-06T14:50:30.300Z,6.67
2018-10-06T14:52:57.539Z,8.67
2018-10-06T14:55:24.776Z,6.33
2018-10-06T14:57:52.024Z,4.60
2018-10-06T15:00:19.276Z,6.50
2018-10-06T15:02:46.512Z,6.10
2018-10-06T15:05:13.758Z,7.33
2018-10-06T15:07:41.008Z,6.93
2018-10-06T15:10:08.335Z,9.73
2018-10-06T15:12:35.504Z,9.43
2018-10-06T15:15:02.768Z,7.77
2018-10-06T15:17:30.009Z,6.23
2018-10-06T15:19:57.244Z,7.60
2018-10-06T15:22:24.500Z,6.80
2018-10-06T15:24:51.804Z,6.03
2018-10-06T15:27:19.088Z,4.63
2018-10-06T15:29:46.341Z,7.70
2018-10-06T15:32:13.597Z,7.27
2018-10-06T15:34:40.849Z,6.53
2018-10-06T15:37:08.101Z,7.13
2018-10-06T15:39:35.378Z,9.07
2018-10-06T15:42:02.681Z,7.27
2018-10-06T15:44:29.913Z,7.90
2018-10-06T15:46:57.168Z,6.63
2018-10-06T15:49:24.429Z,6.70
2018-10-06T15:51:51.676Z,8.27
2018-10-06T15:54:18.916Z,5.27
2018-10-06T15:56:46.175Z,6.77
2018-10-06T15:59:13.413Z,8.13
2018-10-06T16:01:40.662Z,7.53
2018-10-06T16:04:07.896Z,9.10
2018-10-06T16:06:35.244Z,8.33
2018-10-06T16:09:02.846Z,5.57
2018-10-06T16:11:30.086Z,6.53
2018-10-06T16:13:57.336Z,11.33
2018-10-06T16:16:24.576Z,10.97
2018-10-06T16:18:51.808Z,8.20
2018-10-06T16:21:19.057Z,7.17
2018-10-06T16:23:46.307Z,9.23
2018-10-06T16:26:13.560Z,6.33
2018-10-06T16:28:40.828Z,9.27
2018-10-06T16:31:08.101Z,10.97
2018-10-06T16:33:35.413Z,9.97
2018-10-06T16:36:02.637Z,6.67
2018-10-06T16:38:29.892Z,7.80
2018-10-06T16:40:57.144Z,8.10
2018-10-06T16:43:24.380Z,8.43
2018-10-06T16:45:51.620Z,8.20
2018-10-06T16:48:18.929Z,10.20
2018-10-06T16:50:46.173Z,9.80
2018-10-06T16:53:13.433Z,6.33
2018-10-06T16:55:40.672Z,8.40
2018-10-06T16:58:07.994Z,6.70
2018-10-06T17:00:35.277Z,10.77
2018-10-06T17:03:02.504Z,10.33
2018-10-06T17:05:29.761Z,11.00
2018-10-06T17:07:57.013Z,11.40
2018-10-06T17:10:24.259Z,11.23
2018-10-06T17:12:51.618Z,12.40
2018-10-06T17:15:18.768Z,10.43
2018-10-06T17:17:46.020Z,12.03
2018-10-06T17:20:13.267Z,13.07
2018-10-06T17:22:40.524Z,13.17
2018-10-06T17:25:07.847Z,10.97
2018-10-06T17:27:35.057Z,11.67
2018-10-06T17:30:05.150Z,14.77
2018-10-06T17:32:32.510Z,13.43
2018-10-06T17:34:59.757Z,14.13
2018-10-06T17:37:27.044Z,16.57
2018-10-06T17:39:54.413Z,15.23
2018-10-06T17:42:21.724Z,14.40
2018-10-06T17:44:48.964Z,15.00
2018-10-06T17:47:16.220Z,16.77
2018-10-06T17:49:43.494Z,16.00
2018-10-06T17:52:11.248Z,17.93
2018-10-06T17:54:38.504Z,21.97
2018-10-06T17:57:05.762Z,47.27
2018-10-06T17:59:33.068Z,40.03
2018-10-06T18:02:00.345Z,43.90
2018-10-06T18:04:27.586Z,106.90
2018-10-06T18:06:54.816Z,35.20
2018-10-06T18:09:22.037Z,48.90
2018-10-06T18:11:49.268Z,39.77
2018-10-06T18:14:16.516Z,29.73
2018-10-06T18:16:43.748Z,18.83
2018-10-06T18:19:10.984Z,17.87
2018-10-06T18:21:38.232Z,17.10
2018-10-06T18:24:05.484Z,16.80
2018-10-06T18:26:32.741Z,17.63
2018-10-06T18:29:00.011Z,17.60
2018-10-06T18:31:27.252Z,15.33
2018-10-06T18:33:54.593Z,20.70
2018-10-06T18:36:21.891Z,18.87
2018-10-06T18:38:49.065Z,17.17
2018-10-06T18:41:16.317Z,17.27
2018-10-06T18:43:43.721Z,18.37
2018-10-06T18:46:10.833Z,16.57
2018-10-06T18:48:38.128Z,16.87
2018-10-06T18:51:05.364Z,19.17
2018-10-06T18:53:32.625Z,18.53
2018-10-06T18:55:59.869Z,21.00
2018-10-06T18:58:27.126Z,22.20
2018-10-06T19:00:54.393Z,23.53
2018-10-06T19:03:21.776Z,25.40
2018-10-06T19:05:48.964Z,25.07
2018-10-06T19:08:16.192Z,24.07
2018-10-06T19:10:43.426Z,23.57
2018-10-06T19:13:10.749Z,27.03
2018-10-06T19:15:38.061Z,33.50
2018-10-06T19:18:05.485Z,28.83
2018-10-06T19:20:32.724Z,34.63
2018-10-06T19:22:59.948Z,31.00
2018-10-06T19:25:27.200Z,29.57
2018-10-06T19:27:54.408Z,32.97
2018-10-06T19:30:22.414Z,34.30
2018-10-06T19:32:49.640Z,31.97
2018-10-06T19:35:16.904Z,31.03
2018-10-06T19:37:44.140Z,31.73
2018-10-06T19:40:11.382Z,31.83
2018-10-06T19:42:38.620Z,31.20
2018-10-06T19:45:05.844Z,33.03
2018-10-06T19:47:33.064Z,30.67
2018-10-06T19:50:00.284Z,29.60
2018-10-06T19:52:27.516Z,33.37
2018-10-06T19:54:54.747Z,30.93
2018-10-06T19:57:21.968Z,29.47
2018-10-06T19:59:49.188Z,33.73
2018-10-06T20:02:16.417Z,31.57
2018-10-06T20:04:43.700Z,33.10
2018-10-06T20:07:10.953Z,32.10
2018-10-06T20:09:38.235Z,29.90
2018-10-06T20:12:05.961Z,35.57
2018-10-06T20:14:33.192Z,37.00
2018-10-06T20:17:01.254Z,31.07
2018-10-06T20:19:28.518Z,37.17
2018-10-06T20:21:55.788Z,32.73
2018-10-06T20:24:23.008Z,38.83
2018-10-06T20:26:50.321Z,37.80
2018-10-06T20:29:17.665Z,35.77
2018-10-06T20:31:44.906Z,38.23
2018-10-06T20:34:12.184Z,37.47
2018-10-06T20:36:39.415Z,37.77
2018-10-06T20:39:07.470Z,40.30
2018-10-06T20:41:34.724Z,36.97
2018-10-06T20:44:02.027Z,38.10
2018-10-06T20:46:29.322Z,42.17
2018-10-06T20:48:56.536Z,45.80
2018-10-06T20:51:23.768Z,46.75
2018-10-06T20:53:51.006Z,50.07
2018-10-06T20:56:18.228Z,50.83
2018-10-06T20:58:45.456Z,43.20
2018-10-06T21:01:12.700Z,47.73
2018-10-06T21:03:39.917Z,46.97
2018-10-06T21:06:07.152Z,48.13
2018-10-06T21:08:34.372Z,46.87
2018-10-06T21:11:01.666Z,46.77
2018-10-06T21:13:28.848Z,53.50
2018-10-06T21:15:56.075Z,51.53
2018-10-06T21:18:23.383Z,53.67
2018-10-06T21:20:50.579Z,54.73
2018-10-06T21:23:17.813Z,52.37
2018-10-06T21:25:45.036Z,55.77
2018-10-06T21:28:12.256Z,57.17
2018-10-06T21:30:39.540Z,51.87
2018-10-06T21:33:06.808Z,56.13
2018-10-06T21:35:34.032Z,59.00
2018-10-06T21:38:01.293Z,52.80
2018-10-06T21:40:28.508Z,60.43
2018-10-06T21:42:56.054Z,61.70
2018-10-06T21:45:23.274Z,60.23
2018-10-06T21:47:50.532Z,67.53
2018-10-06T21:50:17.784Z,65.33
2018-10-06T21:52:45.479Z,61.47
2018-10-06T21:55:13.039Z,67.00
2018-10-06T21:57:40.276Z,63.43
2018-10-06T22:00:07.612Z,64.27
2018-10-06T22:02:34.837Z,64.30
2018-10-06T22:05:02.084Z,64.40
2018-10-06T22:07:29.308Z,63.80
2018-10-06T22:09:56.885Z,69.97
2018-10-06T22:12:24.109Z,70.37
2018-10-06T22:14:51.329Z,71.53
2018-10-06T22:17:18.585Z,70.07
2018-10-06T22:19:45.824Z,68.13
2018-10-06T22:22:13.040Z,66.73
2018-10-06T22:24:40.344Z,68.33
2018-10-06T22:27:07.565Z,69.23
2018-10-06T22:29:34.795Z,71.30
2018-10-06T22:32:02.068Z,75.17
2018-10-06T22:34:29.328Z,75.90
2018-10-06T22:36:56.554Z,72.87
2018-10-06T22:39:23.792Z,84.47
2018-10-06T22:41:51.024Z,84.23
2018-10-06T22:44:18.328Z,83.30
2018-10-06T22:46:45.574Z,82.97
2018-10-06T22:49:12.796Z,82.30
2018-10-06T22:51:40.004Z,88.17
2018-10-06T22:54:07.241Z,91.20
2018-10-06T22:56:34.468Z,97.47
2018-10-06T22:59:01.720Z,92.40
2018-10-06T23:01:28.944Z,99.07
2018-10-06T23:03:56.197Z,96.17
2018-10-06T23:06:23.454Z,92.77
2018-10-06T23:08:50.702Z,99.53
2018-10-06T23:11:17.927Z,97.93
2018-10-06T23:13:45.171Z,89.77
2018-10-06T23:16:12.414Z,95.10
2018-10-06T23:18:39.644Z,92.90
2018-10-06T23:21:06.868Z,91.23
2018-10-06T23:23:34.088Z,92.27
2018-10-06T23:26:01.328Z,87.57
2018-10-06T23:28:28.543Z,95.93
2018-10-06T23:30:55.772Z,90.40
2018-10-06T23:33:22.996Z,86.73
2018-10-06T23:35:50.236Z,84.90
2018-10-06T23:38:17.476Z,86.40
2018-10-06T23:40:44.716Z,83.45
2018-10-06T23:43:11.948Z,82.17
2018-10-06T23:45:39.171Z,83.53
2018-10-06T23:48:06.444Z,72.27
2018-10-06T23:50:33.688Z,75.27
2018-10-06T23:53:00.908Z,69.20
2018-10-06T23:55:28.185Z,70.83
2018-10-06T23:57:55.440Z,66.63
